Time;durP1;ratioP1;P1;durP2;ratioP2;P2;SDS_P1;SDS_P2;PMS_P1;PMS_P2;Temp;Humidity;BMP_temperature;BMP_pressure;BME280_temperature;BME280_humidity;BME280_pressure;Samples;Min_cycle;Max_cycle;Signal;HPM_P1;HPM_P2
2023/10/30 00:01:33;;;;;;;22.23;3.05;;;9.40;99.90;;;;;;4987383;28;20062;-58
2023/10/30 00:04:00;;;;;;;15.48;3.78;;;9.50;99.90;;;;;;4987566;28;20042;-59
2023/10/30 00:06:29;;;;;;;22.30;3.70;;;9.50;99.90;;;;;;4986039;28;20058;-62
2023/10/30 00:08:57;;;;;;;28.23;4.03;;;9.60;99.90;;;;;;4986505;28;20051;-61
2023/10/30 00:11:24;;;;;;;21.70;3.92;;;9.60;99.90;;;;;;4982754;28;20049;-62
2023/10/30 00:13:53;;;;;;;29.67;4.13;;;9.60;99.90;;;;;;4967145;28;20053;-62
2023/10/30 00:16:21;;;;;;;17.17;2.70;;;9.60;99.90;;;;;;4967238;28;20038;-58
2023/10/30 00:18:49;;;;;;;17.98;3.38;;;9.70;99.90;;;;;;4985617;28;20058;-61
2023/10/30 00:21:17;;;;;;;13.95;2.60;;;9.60;99.90;;;;;;4987390;28;20046;-62
2023/10/30 00:23:45;;;;;;;11.80;3.55;;;9.70;99.90;;;;;;4987550;28;20059;-62
2023/10/30 00:26:13;;;;;;;11.63;2.88;;;9.70;99.90;;;;;;4985570;28;20061;-61
2023/10/30 00:28:44;;;;;;;18.15;3.20;;;9.70;99.90;;;;;;4975904;28;20054;-61
2023/10/30 00:31:11;;;;;;;12.95;2.45;;;9.70;99.90;;;;;;4988041;28;20399;-60
2023/10/30 00:33:39;;;;;;;15.13;3.25;;;9.70;99.90;;;;;;4986316;28;20487;-61
2023/10/30 00:36:07;;;;;;;16.25;2.90;;;9.70;99.90;;;;;;4986851;28;20053;-61
2023/10/30 00:38:34;;;;;;;25.85;2.97;;;9.70;99.90;;;;;;4987423;28;20073;-60
2023/10/30 00:41:02;;;;;;;18.35;2.60;;;9.80;99.90;;;;;;4987063;28;20051;-60
2023/10/30 00:43:30;;;;;;;14.85;2.38;;;9.80;99.90;;;;;;4982828;28;20454;-62
2023/10/30 00:45:58;;;;;;;20.85;3.50;;;9.80;99.90;;;;;;4987469;28;20042;-62
2023/10/30 00:48:26;;;;;;;12.05;2.28;;;9.80;99.90;;;;;;4986226;28;20073;-63
2023/10/30 00:50:54;;;;;;;15.45;2.83;;;9.80;99.90;;;;;;4987287;28;20046;-62
2023/10/30 00:53:22;;;;;;;16.88;2.08;;;9.80;99.90;;;;;;4986985;28;20050;-63
2023/10/30 00:55:52;;;;;;;15.40;2.80;;;9.80;99.90;;;;;;4985624;28;20038;-62
2023/10/30 00:58:20;;;;;;;15.20;3.22;;;9.80;99.90;;;;;;4982078;28;20051;-62
2023/10/30 01:00:54;;;;;;;13.60;2.53;;;9.80;99.90;;;;;;4981571;28;20038;-60
2023/10/30 01:03:23;;;;;;;17.35;2.97;;;9.80;99.90;;;;;;4982643;28;20043;-61
2023/10/30 01:05:59;;;;;;;19.00;2.63;;;9.70;99.90;;;;;;4984278;28;20031;-61
2023/10/30 01:08:28;;;;;;;20.40;2.42;;;9.70;99.90;;;;;;4988244;28;20057;-61
2023/10/30 01:10:56;;;;;;;20.17;2.58;;;9.70;99.90;;;;;;4988034;28;20058;-58
2023/10/30 01:13:24;;;;;;;19.52;2.70;;;9.70;99.90;;;;;;4985363;28;20054;-60
2023/10/30 01:15:53;;;;;;;10.95;2.25;;;9.70;99.90;;;;;;4969788;28;20050;-61
2023/10/30 01:18:22;;;;;;;12.48;2.50;;;9.60;99.90;;;;;;4981777;28;20046;-60
2023/10/30 01:20:49;;;;;;;18.05;2.20;;;9.60;99.90;;;;;;4989173;28;20247;-60
2023/10/30 01:23:17;;;;;;;17.17;2.15;;;9.60;99.90;;;;;;4989276;28;20402;-59
2023/10/30 01:25:46;;;;;;;12.48;2.90;;;9.60;99.90;;;;;;4990052;28;20501;-58
2023/10/30 01:28:15;;;;;;;;;;;9.60;99.90;;;;;;4979517;28;20058;-60
2023/10/30 01:30:42;;;;;;;14.98;2.28;;;9.60;99.90;;;;;;4989118;28;19953;-60
2023/10/30 01:33:10;;;;;;;16.17;2.30;;;9.60;99.90;;;;;;4989519;28;20057;-59
2023/10/30 01:35:38;;;;;;;16.27;2.58;;;9.60;99.90;;;;;;4987658;28;20521;-59
2023/10/30 01:38:06;;;;;;;15.70;2.58;;;9.50;99.90;;;;;;4987967;28;20058;-60
2023/10/30 01:40:35;;;;;;;12.43;2.22;;;9.60;99.90;;;;;;4988653;28;20046;-59
2023/10/30 01:43:09;;;;;;;15.43;2.38;;;9.60;99.90;;;;;;4987191;28;20062;-58
2023/10/30 01:45:36;;;;;;;18.27;2.95;;;9.50;99.90;;;;;;4985989;28;20073;-58
2023/10/30 01:48:04;;;;;;;21.20;3.38;;;9.50;99.90;;;;;;4987270;28;20039;-59
2023/10/30 01:50:33;;;;;;;15.90;2.25;;;9.60;99.90;;;;;;4989372;28;20057;-57
2023/10/30 01:53:04;;;;;;;16.77;2.95;;;9.60;99.90;;;;;;4989721;28;20050;-59
2023/10/30 01:55:32;;;;;;;16.35;1.73;;;10.70;99.90;;;;;;4989142;28;20044;-59
2023/10/30 01:58:00;;;;;;;16.88;2.40;;;9.50;99.90;;;;;;4985398;28;20055;-60
2023/10/30 02:00:28;;;;;;;19.02;2.28;;;9.60;99.90;;;;;;4989365;28;20049;-57
2023/10/30 02:02:58;;;;;;;14.55;2.05;;;9.50;99.90;;;;;;4987548;28;20530;-57
2023/10/30 02:05:25;;;;;;;10.40;2.08;;;9.50;99.90;;;;;;4987043;28;20096;-59
2023/10/30 02:07:53;;;;;;;13.65;2.05;;;9.50;99.90;;;;;;4987812;28;20061;-58
2023/10/30 02:10:21;;;;;;;15.68;2.40;;;9.60;99.90;;;;;;4987095;28;20061;-60
2023/10/30 02:12:50;;;;;;;11.10;2.25;;;9.50;99.90;;;;;;4987238;28;20042;-60
2023/10/30 02:15:18;;;;;;;17.15;2.33;;;9.50;99.90;;;;;;4988817;28;20043;-58
2023/10/30 02:17:46;;;;;;;9.23;2.08;;;9.50;99.90;;;;;;4968089;28;20050;-57
2023/10/30 02:20:13;;;;;;;14.60;2.47;;;9.60;99.90;;;;;;4988391;28;20042;-58
2023/10/30 02:22:41;;;;;;;17.25;2.42;;;9.50;99.90;;;;;;4988003;28;20498;-58
2023/10/30 02:25:09;;;;;;;17.15;2.30;;;9.50;99.90;;;;;;4988041;28;20046;-58
2023/10/30 02:27:37;;;;;;;9.15;2.50;;;9.50;99.90;;;;;;4984329;28;20046;-58
2023/10/30 02:30:08;;;;;;;14.32;2.42;;;9.50;99.90;;;;;;4986914;28;20050;-59
2023/10/30 02:32:36;;;;;;;13.45;2.00;;;9.50;99.90;;;;;;4970740;28;20133;-58
2023/10/30 02:35:04;;;;;;;10.77;2.03;;;9.50;99.90;;;;;;4983202;28;20046;-58
2023/10/30 02:37:32;;;;;;;25.60;2.50;;;9.50;99.90;;;;;;4991808;28;20055;-59
2023/10/30 02:39:59;;;;;;;16.00;2.72;;;9.50;99.90;;;;;;4991101;28;20054;-58
2023/10/30 02:42:27;;;;;;;13.30;2.33;;;9.60;99.90;;;;;;4988342;28;21077;-60
2023/10/30 02:44:54;;;;;;;14.55;2.38;;;9.60;99.90;;;;;;4972726;28;20487;-60
2023/10/30 02:47:24;;;;;;;21.17;2.13;;;9.50;99.90;;;;;;4987244;28;20072;-61
2023/10/30 02:49:51;;;;;;;16.20;3.23;;;9.60;99.90;;;;;;4986684;28;20042;-60
2023/10/30 02:52:19;;;;;;;18.77;2.58;;;9.60;99.90;;;;;;4990614;28;20038;-60
2023/10/30 02:54:47;;;;;;;16.45;2.72;;;9.50;99.90;;;;;;4991950;28;20042;-59
2023/10/30 02:57:15;;;;;;;27.98;2.65;;;9.50;99.90;;;;;;4991337;28;20498;-60
2023/10/30 02:59:42;;;;;;;16.00;2.40;;;9.50;99.90;;;;;;4983670;28;20069;-60
2023/10/30 03:02:10;;;;;;;12.45;2.33;;;9.50;99.90;;;;;;4987771;28;20046;-60
2023/10/30 03:04:38;;;;;;;9.48;1.83;;;9.50;99.90;;;;;;4988191;28;20050;-60
2023/10/30 03:07:08;;;;;;;9.60;1.75;;;9.50;99.90;;;;;;4984692;28;20058;-60
2023/10/30 03:09:37;;;;;;;11.90;2.45;;;9.50;99.90;;;;;;4986007;28;20195;-60
2023/10/30 03:12:05;;;;;;;26.23;3.03;;;9.50;99.90;;;;;;4987753;28;20053;-61
2023/10/30 03:14:34;;;;;;;17.40;2.83;;;9.50;99.90;;;;;;4988470;28;20465;-58
2023/10/30 03:17:01;;;;;;;15.57;2.17;;;9.50;99.90;;;;;;4976759;28;20062;-60
2023/10/30 03:19:29;;;;;;;20.20;2.40;;;9.50;99.90;;;;;;4988164;28;20490;-61
2023/10/30 03:21:57;;;;;;;16.77;2.55;;;9.50;99.90;;;;;;4988265;28;20038;-60
2023/10/30 03:24:25;;;;;;;13.88;2.20;;;9.50;99.90;;;;;;4987279;28;20042;-61
2023/10/30 03:26:52;;;;;;;15.57;2.00;;;9.50;99.90;;;;;;4988463;28;20368;-61
2023/10/30 03:29:20;;;;;;;20.52;2.30;;;9.60;99.90;;;;;;4986986;28;20057;-60
2023/10/30 03:31:52;;;;;;;15.88;2.63;;;9.60;99.90;;;;;;4986624;28;20514;-59
2023/10/30 03:34:21;;;;;;;16.15;1.83;;;9.60;99.90;;;;;;4973803;28;20065;-60
2023/10/30 03:36:50;;;;;;;13.55;2.50;;;9.60;99.90;;;;;;4987203;28;20058;-60
2023/10/30 03:39:18;;;;;;;12.73;2.10;;;9.60;99.90;;;;;;4988413;28;20057;-60
2023/10/30 03:41:45;;;;;;;10.50;3.15;;;9.60;99.90;;;;;;4988714;28;20340;-60
2023/10/30 03:44:13;;;;;;;23.05;2.75;;;9.60;99.90;;;;;;4975221;28;20399;-60
2023/10/30 03:46:41;;;;;;;19.27;2.78;;;9.60;99.90;;;;;;4978484;28;20062;-60
2023/10/30 03:49:10;;;;;;;15.10;1.98;;;9.60;99.90;;;;;;4987824;28;20053;-60
2023/10/30 03:51:37;;;;;;;15.98;3.05;;;9.60;99.90;;;;;;4987543;28;20047;-58
2023/10/30 03:54:05;;;;;;;6.88;1.85;;;9.60;99.90;;;;;;4988209;28;20062;-59
2023/10/30 03:56:33;;;;;;;10.80;1.70;;;9.50;99.90;;;;;;4988398;28;20046;-59
2023/10/30 03:59:01;;;;;;;12.20;1.50;;;9.50;99.90;;;;;;4987800;28;20062;-58
2023/10/30 04:01:29;;;;;;;13.38;2.00;;;9.50;99.90;;;;;;4981908;28;20058;-61
2023/10/30 04:03:57;;;;;;;14.75;2.88;;;9.40;99.90;;;;;;4973232;28;20051;-61
2023/10/30 04:06:24;;;;;;;19.90;2.08;;;9.40;99.90;;;;;;4991634;28;20212;-61
2023/10/30 04:08:52;;;;;;;10.75;1.50;;;9.40;99.90;;;;;;4991230;28;20057;-61
2023/10/30 04:11:20;;;;;;;11.60;2.50;;;9.40;99.90;;;;;;4990511;28;20046;-61
2023/10/30 04:13:47;;;;;;;16.83;1.98;;;9.40;99.90;;;;;;4991581;28;20046;-59
2023/10/30 04:16:16;;;;;;;10.73;1.73;;;9.40;99.90;;;;;;4987957;28;20055;-60
2023/10/30 04:18:44;;;;;;;11.80;1.87;;;9.40;99.90;;;;;;4990606;28;20487;-61
2023/10/30 04:21:12;;;;;;;17.33;2.20;;;9.40;99.90;;;;;;4991267;28;20409;-60
2023/10/30 04:23:42;;;;;;;10.27;2.10;;;9.50;99.90;;;;;;4982233;28;20050;-60
2023/10/30 04:26:10;;;;;;;15.32;2.17;;;9.50;99.90;;;;;;4988522;28;20042;-61
2023/10/30 04:28:37;;;;;;;10.45;1.65;;;9.50;99.90;;;;;;4994485;28;20050;-61
2023/10/30 04:31:06;;;;;;;11.95;2.47;;;9.50;99.90;;;;;;4994329;28;20046;-60
2023/10/30 04:33:33;;;;;;;14.18;1.95;;;9.50;99.90;;;;;;4993297;28;20046;-60
2023/10/30 04:36:03;;;;;;;15.93;1.85;;;9.50;99.90;;;;;;4994270;28;20050;-60
2023/10/30 04:38:31;;;;;;;12.35;1.42;;;9.60;99.90;;;;;;4993503;28;20042;-61
2023/10/30 04:41:03;;;;;;;15.27;1.75;;;9.50;99.90;;;;;;4994325;28;20051;-61
2023/10/30 04:43:35;;;;;;;15.13;1.95;;;9.60;99.90;;;;;;4994192;28;20053;-60
2023/10/30 04:46:02;;;;;;;9.32;1.67;;;9.60;99.90;;;;;;4993907;28;20046;-59
2023/10/30 04:48:30;;;;;;;9.25;1.85;;;9.60;99.90;;;;;;4993629;28;20438;-61
2023/10/30 04:50:59;;;;;;;19.02;2.25;;;9.60;99.90;;;;;;4993782;28;20053;-58
2023/10/30 04:53:29;;;;;;;12.93;2.10;;;9.60;99.90;;;;;;4993088;28;20049;-60
2023/10/30 04:55:57;;;;;;;13.13;2.35;;;9.60;99.90;;;;;;4993954;28;20467;-59
2023/10/30 04:58:25;;;;;;;18.20;1.70;;;9.60;99.90;;;;;;4994026;28;20073;-59
2023/10/30 05:00:53;;;;;;;13.20;2.00;;;9.60;99.90;;;;;;4992317;28;20050;-61
2023/10/30 05:03:20;;;;;;;18.65;2.47;;;9.60;99.90;;;;;;4993654;28;20474;-60
2023/10/30 05:05:48;;;;;;;27.13;2.80;;;9.60;99.90;;;;;;4987399;28;20407;-61
2023/10/30 05:08:17;;;;;;;25.15;2.58;;;9.60;99.90;;;;;;4975107;28;20046;-59
2023/10/30 05:10:45;;;;;;;13.02;1.45;;;9.60;99.90;;;;;;4993355;28;20054;-62
2023/10/30 05:13:12;;;;;;;9.38;1.70;;;9.70;99.90;;;;;;4993555;28;20038;-61
2023/10/30 05:15:40;;;;;;;13.57;1.65;;;9.70;99.90;;;;;;4992300;28;20046;-62
2023/10/30 05:18:07;;;;;;;12.13;1.77;;;9.60;99.90;;;;;;4992791;28;20045;-61
2023/10/30 05:20:35;;;;;;;13.27;2.08;;;9.70;99.90;;;;;;4991698;28;20058;-60
2023/10/30 05:23:03;;;;;;;18.70;3.13;;;9.70;99.90;;;;;;4993035;28;20053;-59
2023/10/30 05:25:30;;;;;;;11.63;1.70;;;9.60;99.90;;;;;;4993353;28;20046;-59
2023/10/30 05:28:12;;;;;;;11.32;1.90;;;9.60;99.90;;;;;;4993172;28;20057;-62
2023/10/30 05:30:40;;;;;;;11.90;2.30;;;9.60;99.90;;;;;;4992159;28;20046;-61
2023/10/30 05:33:08;;;;;;;14.63;1.90;;;9.50;99.90;;;;;;4973638;28;20647;-61
2023/10/30 05:35:35;;;;;;;13.57;2.60;;;9.40;99.90;;;;;;4989051;28;20069;-60
2023/10/30 05:38:05;;;;;;;12.50;2.65;;;9.40;99.90;;;;;;4989831;28;20487;-61
2023/10/30 05:40:32;;;;;;;12.13;2.05;;;9.30;99.90;;;;;;4993109;28;20054;-59
2023/10/30 05:43:00;;;;;;;11.77;2.13;;;9.30;99.90;;;;;;4991430;28;20054;-62
2023/10/30 05:45:28;;;;;;;14.80;2.80;;;9.30;99.90;;;;;;4992857;28;20042;-61
2023/10/30 05:47:55;;;;;;;20.75;3.42;;;9.30;99.90;;;;;;4984310;28;20046;-61
2023/10/30 05:50:23;;;;;;;11.27;2.30;;;9.30;99.90;;;;;;4989256;28;20406;-60
2023/10/30 05:52:51;;;;;;;15.88;2.70;;;9.30;99.90;;;;;;4989454;28;20053;-61
2023/10/30 05:55:19;;;;;;;15.75;2.65;;;9.20;99.90;;;;;;4984169;28;20039;-61
2023/10/30 05:57:46;;;;;;;16.95;2.38;;;9.20;99.90;;;;;;4976221;28;20498;-60
2023/10/30 06:00:15;;;;;;;12.82;1.73;;;9.30;99.90;;;;;;4989150;28;20043;-61
2023/10/30 06:02:42;;;;;;;14.38;2.15;;;9.30;99.90;;;;;;4978180;28;20043;-61
2023/10/30 06:05:12;;;;;;;13.55;2.25;;;9.20;99.90;;;;;;4984382;28;20057;-63
2023/10/30 06:07:43;;;;;;;25.95;2.80;;;9.30;99.90;;;;;;4986359;28;20401;-62
2023/10/30 06:10:11;;;;;;;14.20;1.80;;;9.30;99.90;;;;;;4987793;28;20046;-61
2023/10/30 06:12:39;;;;;;;11.77;1.67;;;9.30;99.90;;;;;;4988976;28;20050;-63
2023/10/30 06:15:07;;;;;;;12.50;1.77;;;9.30;99.90;;;;;;4989080;28;20058;-63
2023/10/30 06:17:35;;;;;;;14.85;2.70;;;9.30;99.90;;;;;;4982726;28;20046;-60
2023/10/30 06:20:04;;;;;;;13.50;2.10;;;9.30;99.90;;;;;;4985532;28;20042;-59
2023/10/30 06:22:32;;;;;;;12.20;1.60;;;9.30;99.90;;;;;;4986883;28;20042;-60
2023/10/30 06:25:00;;;;;;;19.73;1.95;;;9.30;99.90;;;;;;4988990;28;20054;-60
2023/10/30 06:27:28;;;;;;;16.45;1.83;;;9.30;99.90;;;;;;4986933;28;20080;-60
2023/10/30 06:29:56;;;;;;;10.88;1.52;;;9.20;99.90;;;;;;4981046;28;20055;-61
2023/10/30 06:32:24;;;;;;;12.18;2.55;;;9.20;99.90;;;;;;4975380;28;20069;-57
2023/10/30 06:34:51;;;;;;;16.73;1.88;;;9.30;99.90;;;;;;4974390;28;20051;-58
2023/10/30 06:37:19;;;;;;;12.35;1.77;;;9.20;99.90;;;;;;4986532;28;20049;-57
2023/10/30 06:39:47;;;;;;;12.23;2.25;;;9.20;99.90;;;;;;4988858;28;20061;-57
2023/10/30 06:42:15;;;;;;;16.85;1.92;;;9.20;99.90;;;;;;4988683;28;20517;-59
2023/10/30 06:44:43;;;;;;;14.18;2.28;;;9.20;99.90;;;;;;4988935;28;20050;-57
2023/10/30 06:47:10;;;;;;;19.55;2.17;;;9.10;99.90;;;;;;4987795;28;20049;-58
2023/10/30 06:49:38;;;;;;;18.25;2.65;;;9.20;99.90;;;;;;4988392;28;20039;-58
2023/10/30 06:52:06;;;;;;;11.38;2.22;;;9.20;99.90;;;;;;4985809;28;20372;-58
2023/10/30 06:54:34;;;;;;;10.10;2.10;;;9.10;99.90;;;;;;4980407;28;20497;-57
2023/10/30 06:57:02;;;;;;;19.60;3.00;;;9.20;99.90;;;;;;4985400;28;20038;-60
2023/10/30 06:59:30;;;;;;;10.90;1.63;;;9.20;99.90;;;;;;4985234;28;20046;-60
2023/10/30 07:01:59;;;;;;;19.02;2.63;;;9.20;99.90;;;;;;4984108;28;20493;-60
2023/10/30 07:04:27;;;;;;;13.48;3.20;;;9.20;99.90;;;;;;4984677;28;20482;-59
2023/10/30 07:06:54;;;;;;;14.38;2.45;;;9.20;99.90;;;;;;4984001;28;20045;-60
2023/10/30 07:09:22;;;;;;;12.32;2.97;;;9.20;99.90;;;;;;4982482;28;20537;-60
2023/10/30 07:11:50;;;;;;;11.73;2.30;;;9.20;99.90;;;;;;4975030;28;20057;-61
2023/10/30 07:14:17;;;;;;;13.60;3.03;;;9.20;99.90;;;;;;4966838;28;20043;-60
2023/10/30 07:16:45;;;;;;;15.70;2.60;;;9.20;99.90;;;;;;4974589;28;20057;-60
2023/10/30 07:19:30;;;;;;;11.38;2.80;;;9.30;99.90;;;;;;4966838;28;20419;-58
2023/10/30 07:21:57;;;;;;;17.80;2.80;;;9.30;99.90;;;;;;4967721;28;20061;-58
2023/10/30 07:24:25;;;;;;;15.70;2.38;;;9.30;99.90;;;;;;4984026;28;20042;-57
2023/10/30 07:26:54;;;;;;;16.05;2.60;;;9.30;99.90;;;;;;4984398;28;20054;-57
2023/10/30 07:29:22;;;;;;;12.27;2.40;;;9.30;99.90;;;;;;4984557;28;20529;-58
2023/10/30 07:31:50;;;;;;;16.63;2.33;;;9.30;99.90;;;;;;4984996;28;20208;-59
2023/10/30 07:34:17;;;;;;;11.25;2.17;;;9.40;99.90;;;;;;4974250;28;20625;-59
2023/10/30 07:36:45;;;;;;;14.82;2.55;;;9.40;99.90;;;;;;4988888;28;20482;-60
2023/10/30 07:39:13;;;;;;;12.48;1.80;;;9.40;99.90;;;;;;4985155;28;20046;-60
2023/10/30 07:41:41;;;;;;;13.07;1.98;;;9.40;99.90;;;;;;4986569;28;20612;-63
2023/10/30 07:44:12;;;;;;;18.00;2.33;;;9.50;99.90;;;;;;4985365;28;20050;-60
2023/10/30 07:46:40;;;;;;;9.32;2.15;;;9.50;99.90;;;;;;4988697;28;20050;-61
2023/10/30 07:49:08;;;;;;;16.52;2.40;;;9.50;99.90;;;;;;4973873;28;20046;-59
2023/10/30 07:51:36;;;;;;;10.18;2.40;;;9.60;99.90;;;;;;4969718;28;20051;-62
2023/10/30 07:54:04;;;;;;;11.45;2.45;;;9.60;99.90;;;;;;4987621;28;20490;-60
2023/10/30 07:56:32;;;;;;;12.55;2.25;;;9.60;99.90;;;;;;4987369;28;20045;-61
2023/10/30 07:58:59;;;;;;;22.98;2.70;;;9.60;99.90;;;;;;4986926;28;20047;-61
2023/10/30 08:01:27;;;;;;;11.13;2.13;;;9.70;99.90;;;;;;4983914;28;20062;-61
2023/10/30 08:03:55;;;;;;;6.80;1.80;;;9.70;99.90;;;;;;4982567;28;20061;-61
2023/10/30 08:06:24;;;;;;;23.67;3.20;;;9.70;99.90;;;;;;4988247;28;20058;-60
2023/10/30 08:08:52;;;;;;;12.05;1.92;;;9.80;99.90;;;;;;4983137;28;20047;-61
2023/10/30 08:11:20;;;;;;;15.55;2.40;;;9.80;99.90;;;;;;4968975;28;20054;-61
2023/10/30 08:13:48;;;;;;;13.95;2.28;;;9.80;99.90;;;;;;4984671;28;20066;-60
2023/10/30 08:16:18;;;;;;;12.95;2.67;;;9.90;99.90;;;;;;4988322;28;20058;-57
2023/10/30 08:18:46;;;;;;;14.32;2.08;;;9.90;99.90;;;;;;4985940;28;20483;-59
2023/10/30 08:21:14;;;;;;;10.02;2.17;;;10.00;99.90;;;;;;4987455;28;20494;-60
2023/10/30 08:23:42;;;;;;;11.63;2.60;;;10.00;99.90;;;;;;4986660;28;20054;-61
2023/10/30 08:26:10;;;;;;;20.60;2.95;;;10.00;99.90;;;;;;4987106;28;20058;-60
2023/10/30 08:28:38;;;;;;;11.88;3.00;;;10.10;99.90;;;;;;4986219;28;20051;-61
2023/10/30 08:31:06;;;;;;;13.38;2.53;;;10.10;99.90;;;;;;4983400;28;20599;-60
2023/10/30 08:33:33;;;;;;;13.45;2.63;;;10.20;99.90;;;;;;4976327;28;20241;-60
2023/10/30 08:36:01;;;;;;;18.23;2.55;;;10.20;99.90;;;;;;4986153;28;20053;-58
2023/10/30 08:38:29;;;;;;;11.02;2.00;;;10.20;99.90;;;;;;4987148;28;20398;-61
2023/10/30 08:40:56;;;;;;;10.70;2.17;;;10.20;99.90;;;;;;4985925;28;20057;-59
2023/10/30 08:43:24;;;;;;;13.50;1.65;;;10.20;99.90;;;;;;4982696;28;20059;-60
2023/10/30 08:45:51;;;;;;;10.38;2.40;;;10.30;99.90;;;;;;4975088;28;20073;-60
2023/10/30 08:48:19;;;;;;;12.80;2.03;;;10.30;99.90;;;;;;4983865;28;20043;-60
2023/10/30 08:50:47;;;;;;;19.08;2.30;;;10.30;99.90;;;;;;4967778;28;20406;-59
2023/10/30 08:53:15;;;;;;;9.23;2.70;;;10.40;99.90;;;;;;4979704;28;20046;-61
2023/10/30 08:55:46;;;;;;;14.32;2.35;;;10.40;99.90;;;;;;4987592;28;20054;-60
2023/10/30 08:58:14;;;;;;;8.93;2.42;;;10.40;99.90;;;;;;4986165;28;20042;-60
2023/10/30 09:00:42;;;;;;;14.43;2.85;;;10.50;99.90;;;;;;4986627;28;20138;-59
2023/10/30 09:03:10;;;;;;;14.25;3.38;;;10.50;99.90;;;;;;4985441;28;20057;-59
2023/10/30 09:05:38;;;;;;;7.07;2.13;;;10.50;99.90;;;;;;4981561;28;20054;-61
2023/10/30 09:08:06;;;;;;;10.68;1.92;;;10.50;99.90;;;;;;4986363;28;20046;-61
2023/10/30 09:10:34;;;;;;;9.77;2.00;;;10.60;99.90;;;;;;4986651;28;20498;-60
2023/10/30 09:13:02;;;;;;;14.00;1.75;;;10.60;99.90;;;;;;4987951;28;20066;-59
2023/10/30 09:15:29;;;;;;;10.07;1.58;;;10.60;99.90;;;;;;4988582;28;20050;-60
2023/10/30 09:17:57;;;;;;;7.82;2.17;;;10.70;99.90;;;;;;4981018;28;20062;-60
2023/10/30 09:20:24;;;;;;;12.70;2.03;;;10.70;99.90;;;;;;4985552;28;20479;-60
2023/10/30 09:22:52;;;;;;;10.40;2.13;;;10.70;99.90;;;;;;4989720;28;20058;-61
2023/10/30 09:25:21;;;;;;;8.52;2.30;;;10.80;99.90;;;;;;4977682;28;20663;-61
2023/10/30 09:27:50;;;;;;;11.30;2.38;;;10.90;99.90;;;;;;4980325;28;20055;-60
2023/10/30 09:30:18;;;;;;;9.07;2.05;;;10.90;99.90;;;;;;4990387;28;20054;-59
2023/10/30 09:32:46;;;;;;;7.00;1.60;;;11.00;99.90;;;;;;4988974;28;20407;-59
2023/10/30 09:35:14;;;;;;;9.57;1.63;;;11.00;99.90;;;;;;4987820;28;20050;-60
2023/10/30 09:37:42;;;;;;;6.50;1.70;;;11.10;99.90;;;;;;4989587;28;20042;-59
2023/10/30 09:40:12;;;;;;;7.75;1.52;;;11.10;99.90;;;;;;4989974;28;20768;-61
2023/10/30 09:42:51;;;;;;;6.13;1.48;;;11.20;99.90;;;;;;4989776;28;20054;-59
2023/10/30 09:45:23;;;;;;;17.17;2.00;;;11.20;99.90;;;;;;4989872;28;20075;-59
2023/10/30 09:47:56;;;;;;;7.55;1.40;;;11.30;99.90;;;;;;4980677;28;20053;-58
2023/10/30 09:50:25;;;;;;;12.07;1.85;;;11.30;99.90;;;;;;4981098;28;20066;-58
2023/10/30 09:52:54;;;;;;;8.85;1.52;;;11.40;99.90;;;;;;4982851;28;20065;-58
2023/10/30 09:55:23;;;;;;;10.40;1.98;;;11.40;99.90;;;;;;4988673;28;20053;-59
2023/10/30 09:57:52;;;;;;;5.65;1.13;;;11.40;99.90;;;;;;4986448;28;20093;-58
2023/10/30 10:00:20;;;;;;;10.63;1.80;;;11.50;99.90;;;;;;4989733;28;20042;-61
2023/10/30 10:02:48;;;;;;;5.45;1.52;;;11.60;99.90;;;;;;4988169;28;20050;-61
2023/10/30 10:05:18;;;;;;;7.80;1.40;;;11.70;99.90;;;;;;4984372;28;20194;-60
2023/10/30 10:07:46;;;;;;;14.50;1.47;;;11.90;99.90;;;;;;4986302;28;20528;-58
2023/10/30 10:10:18;;;;;;;7.53;1.58;;;12.00;99.90;;;;;;4986015;28;20292;-61
2023/10/30 10:12:50;;;;;;;7.18;1.30;;;12.10;99.90;;;;;;4980007;28;20042;-58
2023/10/30 10:15:20;;;;;;;11.95;1.33;;;12.20;99.90;;;;;;4972887;28;20042;-60
2023/10/30 10:17:51;;;;;;;6.78;1.00;;;12.40;99.90;;;;;;4987723;28;20490;-58
2023/10/30 10:20:21;;;;;;;8.82;1.45;;;12.60;99.90;;;;;;4972802;28;20042;-61
2023/10/30 10:22:49;;;;;;;7.93;1.63;;;12.80;99.90;;;;;;4974347;28;20046;-60
2023/10/30 10:25:18;;;;;;;11.40;1.70;;;13.00;99.90;;;;;;4984445;28;20046;-60
2023/10/30 10:27:49;;;;;;;7.13;1.20;;;13.20;99.90;;;;;;4981513;28;20042;-61
2023/10/30 10:30:23;;;;;;;11.20;1.48;;;13.40;99.90;;;;;;4988585;28;20047;-61
2023/10/30 10:32:51;;;;;;;5.45;1.10;;;13.60;99.90;;;;;;4988851;28;20046;-59
2023/10/30 10:35:21;;;;;;;6.97;1.00;;;13.80;99.90;;;;;;4976579;28;20071;-61
2023/10/30 10:37:49;;;;;;;6.07;1.30;;;14.00;99.90;;;;;;4974566;28;20486;-62
2023/10/30 10:40:18;;;;;;;6.03;1.67;;;14.20;99.90;;;;;;4987560;28;20038;-60
2023/10/30 10:42:47;;;;;;;6.18;1.00;;;14.30;99.90;;;;;;4988645;28;20053;-60
2023/10/30 10:45:18;;;;;;;9.82;1.27;;;14.50;99.90;;;;;;4988434;28;20406;-59
2023/10/30 10:47:46;;;;;;;10.85;1.20;;;14.60;99.90;;;;;;4985800;28;20054;-59
2023/10/30 10:50:15;;;;;;;5.85;0.90;;;14.80;99.90;;;;;;4974722;28;20053;-61
2023/10/30 10:52:43;;;;;;;7.65;1.10;;;15.10;99.90;;;;;;4986930;28;20039;-62
2023/10/30 10:55:13;;;;;;;8.07;1.40;;;15.20;99.90;;;;;;4987492;28;20038;-60
2023/10/30 10:58:04;;;;;;;4.93;1.13;;;15.30;99.90;;;;;;4988660;28;20050;-61
2023/10/30 11:00:40;;;;;;;5.65;1.20;;;15.30;99.90;;;;;;4988626;28;20390;-59
2023/10/30 11:03:08;;;;;;;12.77;1.30;;;15.30;99.90;;;;;;4979126;28;20054;-61
2023/10/30 11:05:37;;;;;;;9.95;1.30;;;15.20;99.90;;;;;;4975598;28;20058;-60
2023/10/30 11:08:10;;;;;;;10.32;1.50;;;15.10;99.90;;;;;;4976263;28;20050;-62
2023/10/30 11:10:53;;;;;;;3.70;0.85;;;15.00;99.90;;;;;;4993084;28;20042;-59
2023/10/30 11:13:42;;;;;;;9.77;1.60;;;14.80;99.90;;;;;;4979606;28;20055;-61
2023/10/30 11:16:19;;;;;;;10.82;2.20;;;14.70;99.90;;;;;;4973176;28;20061;-62
2023/10/30 11:18:52;;;;;;;6.95;1.10;;;14.50;99.90;;;;;;4989112;28;20398;-59
2023/10/30 11:21:25;;;;;;;6.28;1.25;;;14.40;99.90;;;;;;4975097;28;20054;-62
2023/10/30 11:23:56;;;;;;;6.40;0.80;;;14.30;99.90;;;;;;4988909;28;20418;-61
2023/10/30 11:26:29;;;;;;;11.70;1.38;;;14.20;99.90;;;;;;4992388;28;20398;-62
2023/10/30 11:28:58;;;;;;;11.02;1.20;;;14.10;99.90;;;;;;4991834;28;20047;-62
2023/10/30 11:31:50;;;;;;;8.32;1.23;;;14.00;99.90;;;;;;4991358;28;20051;-62
2023/10/30 11:34:17;;;;;;;7.32;1.48;;;14.00;99.90;;;;;;4977225;28;20079;-60
2023/10/30 11:36:50;;;;;;;7.72;1.10;;;14.00;99.90;;;;;;4991556;28;20061;-61
2023/10/30 11:39:20;;;;;;;12.60;1.38;;;14.00;99.90;;;;;;4983841;28;20047;-61
2023/10/30 11:41:50;;;;;;;10.93;1.88;;;14.10;99.90;;;;;;4973127;28;20043;-60
2023/10/30 11:44:18;;;;;;;8.05;1.27;;;14.20;99.90;;;;;;4991056;28;20051;-60
2023/10/30 11:46:51;;;;;;;6.70;1.20;;;14.20;99.90;;;;;;4986944;28;20117;-60
2023/10/30 11:49:21;;;;;;;10.15;1.23;;;14.30;99.90;;;;;;4988548;28;20051;-61
2023/10/30 11:51:52;;;;;;;6.60;1.42;;;14.30;99.90;;;;;;4973508;28;20066;-61
2023/10/30 11:54:32;;;;;;;7.93;1.30;;;14.40;99.90;;;;;;4991575;28;20038;-61
2023/10/30 11:57:00;;;;;;;4.53;1.00;;;14.40;99.90;;;;;;4991089;28;20054;-62
2023/10/30 11:59:28;;;;;;;7.30;1.63;;;14.30;99.90;;;;;;4986993;28;20051;-61
2023/10/30 12:01:59;;;;;;;10.60;1.63;;;14.20;99.90;;;;;;4978428;28;20072;-61
2023/10/30 12:04:27;;;;;;;6.90;1.13;;;14.10;99.90;;;;;;4991289;28;20073;-61
2023/10/30 12:06:55;;;;;;;6.28;0.95;;;14.10;99.90;;;;;;4972474;28;20051;-62
2023/10/30 12:09:23;;;;;;;6.03;1.00;;;14.10;99.90;;;;;;4989367;28;20046;-61
2023/10/30 12:11:51;;;;;;;6.97;1.02;;;14.10;99.90;;;;;;4991594;28;20089;-61
2023/10/30 12:14:19;;;;;;;8.65;1.40;;;14.10;99.90;;;;;;4991636;28;20053;-60
2023/10/30 12:16:48;;;;;;;11.95;1.63;;;14.10;99.90;;;;;;4989589;28;20042;-58
2023/10/30 12:19:21;;;;;;;6.95;0.95;;;14.10;99.90;;;;;;4990992;28;20046;-58
2023/10/30 12:21:51;;;;;;;7.75;1.38;;;14.30;99.90;;;;;;4973310;28;20058;-59
2023/10/30 12:24:19;;;;;;;6.27;1.13;;;14.40;99.90;;;;;;4987392;28;20046;-58
2023/10/30 12:26:48;;;;;;;11.35;1.50;;;14.50;99.90;;;;;;4969834;28;20304;-58
2023/10/30 12:29:23;;;;;;;8.48;1.20;;;15.00;99.90;;;;;;4987957;28;20061;-60
2023/10/30 12:32:11;;;;;;;6.78;1.00;;;15.30;99.90;;;;;;4980824;28;20070;-59
2023/10/30 12:34:39;;;;;;;8.00;1.45;;;15.40;99.90;;;;;;4975964;28;20049;-59
2023/10/30 12:37:37;;;;;;;6.57;0.95;;;15.40;99.90;;;;;;4969104;28;20055;-59
2023/10/30 12:40:10;;;;;;;4.88;1.10;;;15.20;99.90;;;;;;4975176;28;20410;-61
2023/10/30 12:42:39;;;;;;;7.22;1.38;;;15.10;99.90;;;;;;4991065;28;20514;-61
2023/10/30 12:45:14;;;;;;;7.53;1.20;;;14.90;99.90;;;;;;4991098;28;20748;-62
2023/10/30 12:47:44;;;;;;;8.93;0.90;;;14.70;99.90;;;;;;4990533;28;20050;-62
2023/10/30 12:50:13;;;;;;;;;;;14.60;99.90;;;;;;4988912;28;20092;-61
2023/10/30 12:52:42;;;;;;;7.63;1.33;;;14.60;99.90;;;;;;4977244;28;19932;-60
2023/10/30 12:55:11;;;;;;;8.65;0.88;;;14.60;99.90;;;;;;4981939;28;20058;-61